Penn Hill, Pennsylvania
Current Conditions -  °F | °C
As of 4:55 AM on Sunday 23 Nov 2014 (Local Time) from KMQS Reporting Station
Broken Clouds Broken Clouds  
Wind Chill: 33°   Ceiling: 8500
Heat Index: 37°   Visibility: 10mi
Dew Point: 21°   Wind: 6mph
Humidity: 52%   Direction: 210°SSW
Pressure: 30.19"   Gusts: NA
Location:  39.7675°N, 76.1818°W
Report Text: KMQS 230955Z AUTO 21005KT 10SM BKN085 03/M06 A3019 RMK AO2
Loading
Personal Weather Stations






























Interactive Weather Map New forecast layout! Learn more

10-Day Weather Forecast

Advertisements
Track Severe Weather on mobile